createdAt,value
2019-05-19T00:01:04.738Z,43.75
2019-05-19T00:06:08.217Z,43.76
2019-05-19T00:11:11.435Z,43.79
2019-05-19T00:16:14.666Z,43.78
2019-05-19T00:21:17.860Z,43.81
2019-05-19T00:26:21.068Z,43.75
2019-05-19T00:31:24.304Z,43.80
2019-05-19T00:36:27.499Z,43.85
2019-05-19T00:41:30.716Z,43.78
2019-05-19T00:46:33.927Z,43.81
2019-05-19T00:51:37.140Z,43.79
2019-05-19T00:56:40.350Z,43.80
2019-05-19T01:01:43.569Z,43.78
2019-05-19T01:06:46.782Z,43.83
2019-05-19T01:11:49.996Z,43.75
2019-05-19T01:16:53.206Z,43.78
2019-05-19T01:21:56.413Z,43.80
2019-05-19T01:26:59.633Z,43.85
2019-05-19T01:32:02.838Z,43.79
2019-05-19T01:37:06.050Z,43.77
2019-05-19T01:42:09.266Z,43.76
2019-05-19T01:47:12.482Z,43.76
2019-05-19T01:52:15.693Z,43.70
2019-05-19T01:57:18.911Z,43.68
2019-05-19T02:02:22.111Z,43.64
2019-05-19T02:07:25.369Z,43.65
2019-05-19T02:12:28.578Z,43.59
2019-05-19T02:17:31.790Z,43.62
2019-05-19T02:22:35.026Z,43.59
2019-05-19T02:27:38.241Z,43.63
2019-05-19T02:32:41.461Z,43.66
2019-05-19T02:37:44.667Z,43.60
2019-05-19T02:42:47.865Z,43.64
2019-05-19T02:47:51.095Z,43.62
2019-05-19T02:52:54.310Z,43.60
2019-05-19T02:57:57.526Z,43.62
2019-05-19T03:03:00.765Z,43.64
2019-05-19T03:08:03.984Z,43.57
2019-05-19T03:13:07.180Z,43.61
2019-05-19T03:18:10.406Z,43.59
2019-05-19T03:23:13.607Z,43.56
2019-05-19T03:28:16.827Z,43.52
2019-05-19T03:33:24.421Z,43.53
2019-05-19T03:38:27.596Z,43.53
2019-05-19T03:43:30.813Z,43.51
2019-05-19T03:48:34.045Z,43.44
2019-05-19T03:53:37.255Z,43.44
2019-05-19T03:58:40.474Z,43.44
2019-05-19T04:03:43.696Z,43.42
2019-05-19T04:08:46.901Z,43.42
2019-05-19T04:13:50.110Z,43.41
2019-05-19T04:18:53.339Z,43.44
2019-05-19T04:23:56.559Z,43.45
2019-05-19T04:28:59.763Z,43.43
2019-05-19T04:34:02.990Z,43.46
2019-05-19T04:39:06.738Z,43.46
2019-05-19T04:44:09.965Z,43.54
2019-05-19T04:49:13.179Z,43.53
2019-05-19T04:54:16.400Z,43.57
2019-05-19T04:59:19.611Z,43.60
2019-05-19T05:04:28.799Z,43.66
2019-05-19T05:09:27.771Z,43.67
2019-05-19T05:14:30.983Z,43.71
2019-05-19T05:19:34.210Z,43.69
2019-05-19T05:24:37.434Z,43.72
2019-05-19T05:29:40.705Z,43.73
2019-05-19T05:34:43.929Z,43.73
2019-05-19T05:39:47.140Z,43.72
2019-05-19T05:44:50.354Z,43.67
2019-05-19T05:49:53.586Z,43.70
2019-05-19T05:54:56.798Z,43.69
2019-05-19T06:00:00.016Z,43.71
2019-05-19T06:05:03.419Z,43.73
2019-05-19T06:10:07.806Z,43.72
2019-05-19T06:15:11.023Z,43.76
2019-05-19T06:20:14.246Z,43.78
2019-05-19T06:25:17.470Z,43.75
2019-05-19T06:30:20.686Z,43.81
2019-05-19T06:35:23.922Z,43.82
2019-05-19T06:40:27.128Z,43.84
2019-05-19T06:45:30.478Z,43.92
2019-05-19T06:50:33.760Z,43.90
2019-05-19T06:55:36.965Z,43.84
2019-05-19T07:00:40.246Z,43.84
2019-05-19T07:05:43.492Z,43.78
2019-05-19T07:10:46.689Z,43.78
2019-05-19T07:15:49.906Z,43.81
2019-05-19T07:20:53.138Z,43.79
2019-05-19T07:25:56.345Z,43.84
2019-05-19T07:30:59.576Z,43.84
2019-05-19T07:36:02.793Z,43.85
2019-05-19T07:41:06.006Z,43.87
2019-05-19T07:46:09.219Z,43.95
2019-05-19T07:51:12.468Z,44.05
2019-05-19T07:56:15.674Z,44.11
2019-05-19T08:01:18.892Z,44.14
2019-05-19T08:06:22.118Z,44.11
2019-05-19T08:11:25.344Z,44.13
2019-05-19T08:16:28.568Z,44.20
2019-05-19T08:21:31.781Z,44.27
2019-05-19T08:26:35.008Z,44.35
2019-05-19T08:31:38.227Z,44.43
2019-05-19T08:36:41.522Z,44.48
2019-05-19T08:41:44.726Z,44.49
2019-05-19T08:46:47.942Z,44.49
2019-05-19T08:51:51.199Z,44.53
2019-05-19T08:56:54.397Z,44.52
2019-05-19T09:01:58.364Z,44.59
2019-05-19T09:07:01.598Z,44.53
2019-05-19T09:12:04.810Z,44.48
2019-05-19T09:17:08.018Z,44.42
2019-05-19T09:22:11.285Z,44.39
2019-05-19T09:27:14.489Z,44.38
2019-05-19T09:32:17.683Z,44.31
2019-05-19T09:37:20.925Z,44.30
2019-05-19T09:42:24.145Z,44.30
2019-05-19T09:47:27.350Z,44.33
2019-05-19T09:52:30.580Z,44.33
2019-05-19T09:57:33.792Z,44.31
2019-05-19T10:02:37.013Z,44.23
2019-05-19T10:07:40.237Z,44.22
2019-05-19T10:12:43.449Z,44.17
2019-05-19T10:17:46.667Z,44.17
2019-05-19T10:22:49.905Z,44.17
2019-05-19T10:27:53.118Z,44.14
2019-05-19T10:32:58.729Z,44.15
2019-05-19T10:38:01.280Z,44.17
2019-05-19T10:43:04.509Z,44.12
2019-05-19T10:48:07.726Z,44.17
2019-05-19T10:53:10.948Z,44.12
2019-05-19T10:58:14.160Z,44.06
2019-05-19T11:03:17.377Z,44.07
2019-05-19T11:08:20.620Z,43.97
2019-05-19T11:13:23.839Z,43.91
2019-05-19T11:18:27.091Z,43.90
2019-05-19T11:23:30.319Z,43.83
2019-05-19T11:28:33.568Z,43.75
2019-05-19T11:33:36.735Z,43.80
2019-05-19T11:38:39.960Z,43.83
2019-05-19T11:43:43.175Z,43.83
2019-05-19T11:48:46.387Z,43.79
2019-05-19T11:53:49.619Z,43.77
2019-05-19T11:58:52.833Z,43.77
2019-05-19T12:03:56.055Z,43.78
2019-05-19T12:08:59.285Z,43.74
2019-05-19T12:14:02.511Z,43.65
2019-05-19T12:19:05.724Z,43.65
2019-05-19T12:24:08.950Z,43.60
2019-05-19T12:29:12.156Z,43.57
2019-05-19T12:34:15.362Z,43.53
2019-05-19T12:39:18.598Z,43.48
2019-05-19T12:44:21.798Z,43.52
2019-05-19T12:49:25.025Z,43.50
2019-05-19T12:54:28.348Z,43.33
2019-05-19T12:59:31.543Z,43.18
2019-05-19T13:04:34.750Z,43.03
2019-05-19T13:09:37.974Z,42.89
2019-05-19T13:14:41.176Z,42.74
2019-05-19T13:19:44.424Z,42.81
2019-05-19T13:24:47.631Z,42.85
2019-05-19T13:29:50.841Z,42.90
2019-05-19T13:34:54.059Z,42.85
2019-05-19T13:39:57.259Z,42.87
2019-05-19T13:45:01.057Z,42.63
2019-05-19T13:50:08.865Z,42.40
2019-05-19T13:55:12.253Z,42.25
2019-05-19T14:00:15.471Z,42.00
2019-05-19T14:05:18.684Z,41.92
2019-05-19T14:10:21.893Z,41.70
2019-05-19T14:15:25.097Z,41.64
2019-05-19T14:20:28.322Z,41.51
2019-05-19T14:25:31.542Z,41.30
2019-05-19T14:30:34.769Z,41.40
2019-05-19T14:35:37.986Z,41.43
2019-05-19T14:40:41.383Z,41.34
2019-05-19T14:45:44.581Z,41.31
2019-05-19T14:50:47.827Z,41.31
2019-05-19T14:55:51.038Z,41.10
2019-05-19T15:00:54.257Z,41.13
2019-05-19T15:05:57.479Z,41.09
2019-05-19T15:11:00.693Z,41.04
2019-05-19T15:16:03.909Z,41.13
2019-05-19T15:21:07.118Z,41.16
2019-05-19T15:26:10.336Z,41.04
2019-05-19T15:31:13.549Z,41.01
2019-05-19T15:36:16.752Z,40.98
2019-05-19T15:41:19.995Z,41.06
2019-05-19T15:46:23.199Z,40.95
2019-05-19T15:51:29.107Z,41.04
2019-05-19T15:56:31.387Z,41.09
2019-05-19T16:01:34.597Z,41.04
2019-05-19T16:06:39.169Z,40.98
2019-05-19T16:11:42.599Z,41.03
2019-05-19T16:16:45.824Z,40.97
2019-05-19T16:21:49.045Z,41.02
2019-05-19T16:26:52.258Z,40.99
2019-05-19T16:31:55.471Z,40.94
2019-05-19T16:36:58.687Z,40.98
2019-05-19T16:42:01.898Z,40.97
2019-05-19T16:47:05.119Z,40.91
2019-05-19T16:52:09.212Z,40.85
2019-05-19T16:57:12.421Z,40.89
2019-05-19T17:02:15.634Z,40.91
2019-05-19T17:07:18.862Z,40.87
2019-05-19T17:12:22.078Z,40.79
2019-05-19T17:17:25.296Z,40.76
2019-05-19T17:22:28.515Z,40.72
2019-05-19T17:27:31.731Z,40.72
2019-05-19T17:32:34.946Z,40.80
2019-05-19T17:37:38.164Z,40.86
2019-05-19T17:42:41.375Z,40.79
2019-05-19T17:47:44.585Z,40.86
2019-05-19T17:52:47.798Z,40.96
2019-05-19T17:57:51.009Z,41.24
2019-05-19T18:02:54.222Z,41.53
2019-05-19T18:07:57.434Z,41.81
2019-05-19T18:13:00.646Z,42.14
2019-05-19T18:18:03.880Z,42.64
2019-05-19T18:23:07.161Z,42.74
2019-05-19T18:28:10.370Z,42.93
2019-05-19T18:33:13.585Z,43.14
2019-05-19T18:38:16.803Z,43.34
2019-05-19T18:43:20.017Z,43.48
2019-05-19T18:48:23.542Z,43.67
2019-05-19T18:53:26.958Z,43.81
2019-05-19T18:58:30.150Z,43.91
2019-05-19T19:03:33.365Z,44.12
2019-05-19T19:08:37.901Z,44.26
2019-05-19T19:13:41.379Z,44.44
2019-05-19T19:18:44.579Z,44.54
2019-05-19T19:23:47.839Z,44.59
2019-05-19T19:28:51.050Z,44.67
2019-05-19T19:33:54.266Z,44.65
2019-05-19T19:38:57.477Z,44.85
2019-05-19T19:44:00.684Z,44.94
2019-05-19T19:49:03.896Z,45.04
2019-05-19T19:54:07.101Z,45.26
2019-05-19T19:59:10.311Z,45.19
2019-05-19T20:04:13.521Z,45.29
2019-05-19T20:09:16.729Z,45.43
2019-05-19T20:14:19.941Z,45.43
2019-05-19T20:19:23.199Z,45.44
2019-05-19T20:24:26.376Z,45.48
2019-05-19T20:29:29.587Z,45.43
2019-05-19T20:34:32.793Z,45.42
2019-05-19T20:39:36.004Z,45.48
2019-05-19T20:44:39.208Z,45.42
2019-05-19T20:49:42.421Z,45.41
2019-05-19T20:54:45.629Z,45.47
2019-05-19T20:59:48.837Z,45.59
2019-05-19T21:04:52.040Z,45.66
2019-05-19T21:09:55.264Z,45.73
2019-05-19T21:14:58.472Z,45.73
2019-05-19T21:20:02.258Z,45.79
2019-05-19T21:25:06.880Z,45.73
2019-05-19T21:30:10.089Z,45.82
2019-05-19T21:35:13.302Z,45.88
2019-05-19T21:40:16.520Z,45.89
2019-05-19T21:45:19.899Z,45.98
2019-05-19T21:50:23.108Z,45.88
2019-05-19T21:55:26.332Z,45.89
2019-05-19T22:00:30.566Z,45.81
2019-05-19T22:05:33.774Z,45.89
2019-05-19T22:10:36.998Z,45.77
2019-05-19T22:15:40.208Z,45.83
2019-05-19T22:20:43.461Z,45.86
2019-05-19T22:25:46.681Z,45.84
2019-05-19T22:30:49.911Z,45.83
2019-05-19T22:35:53.105Z,45.86
2019-05-19T22:40:56.326Z,45.88
2019-05-19T22:45:59.540Z,45.84
2019-05-19T22:51:02.754Z,45.88
2019-05-19T22:56:06.006Z,45.86
2019-05-19T23:01:09.308Z,45.88
2019-05-19T23:06:12.490Z,45.79
2019-05-19T23:11:15.712Z,45.80
2019-05-19T23:16:18.923Z,45.84
2019-05-19T23:21:22.119Z,45.76
2019-05-19T23:26:25.338Z,45.81
2019-05-19T23:31:28.551Z,45.80
2019-05-19T23:36:31.762Z,45.78
2019-05-19T23:41:34.980Z,45.87
2019-05-19T23:46:38.189Z,45.83
2019-05-19T23:51:41.396Z,45.83
2019-05-19T23:56:44.629Z,45.80
